createdAt,value
2023-07-23T00:00:14.919Z,15.84
2023-07-23T00:02:43.029Z,15.85
2023-07-23T00:05:11.043Z,15.89
2023-07-23T00:07:38.988Z,15.89
2023-07-23T00:10:10.429Z,15.92
2023-07-23T00:12:38.744Z,15.93
2023-07-23T00:15:08.989Z,15.92
2023-07-23T00:17:36.991Z,15.94
2023-07-23T00:20:05.821Z,15.90
2023-07-23T00:22:33.901Z,15.93
2023-07-23T00:25:01.938Z,15.91
2023-07-23T00:27:30.078Z,15.92
2023-07-23T00:29:58.289Z,15.94
2023-07-23T00:32:27.896Z,15.95
2023-07-23T00:34:55.912Z,15.94
2023-07-23T00:37:24.044Z,15.94
2023-07-23T00:39:52.016Z,15.92
2023-07-23T00:42:19.946Z,15.92
2023-07-23T00:44:48.006Z,15.93
2023-07-23T00:47:16.098Z,15.90
2023-07-23T00:49:45.964Z,15.92
2023-07-23T00:52:14.862Z,15.86
2023-07-23T00:54:43.093Z,15.87
2023-07-23T00:57:12.878Z,15.89
2023-07-23T00:59:41.320Z,15.92
2023-07-23T01:02:09.664Z,15.94
2023-07-23T01:04:37.971Z,15.97
2023-07-23T01:07:09.538Z,15.96
2023-07-23T01:09:38.941Z,15.93
2023-07-23T01:12:08.578Z,15.93
2023-07-23T01:14:37.633Z,15.99
2023-07-23T01:17:06.545Z,15.96
2023-07-23T01:19:34.559Z,15.93
2023-07-23T01:22:07.290Z,15.93
2023-07-23T01:24:36.866Z,16.00
2023-07-23T01:27:05.255Z,16.00
2023-07-23T01:29:33.280Z,16.03
2023-07-23T01:32:01.285Z,15.95
2023-07-23T01:34:30.093Z,15.97
2023-07-23T01:36:58.341Z,15.93
2023-07-23T01:39:28.239Z,15.93
2023-07-23T01:41:56.499Z,16.01
2023-07-23T01:44:24.497Z,16.00
2023-07-23T01:46:52.721Z,16.02
2023-07-23T01:49:20.688Z,16.03
2023-07-23T01:51:48.765Z,16.07
2023-07-23T01:54:16.801Z,16.03
2023-07-23T01:56:46.191Z,16.10
2023-07-23T01:59:14.157Z,16.08
2023-07-23T02:01:42.349Z,16.07
2023-07-23T02:04:10.467Z,16.09
2023-07-23T02:06:38.610Z,16.12
2023-07-23T02:09:06.697Z,16.11
2023-07-23T02:11:34.763Z,16.11
2023-07-23T02:14:04.386Z,16.13
2023-07-23T02:16:32.403Z,16.16
2023-07-23T02:19:00.599Z,16.15
2023-07-23T02:21:28.886Z,16.17
2023-07-23T02:23:57.027Z,16.19
2023-07-23T02:26:25.197Z,16.20
2023-07-23T02:28:53.227Z,16.23
2023-07-23T02:31:22.583Z,16.20
2023-07-23T02:33:50.553Z,16.23
2023-07-23T02:36:18.601Z,16.26
2023-07-23T02:38:46.662Z,16.25
2023-07-23T02:41:14.685Z,16.29
2023-07-23T02:43:42.696Z,16.27
2023-07-23T02:46:10.758Z,16.34
2023-07-23T02:48:40.204Z,16.33
2023-07-23T02:51:08.477Z,16.37
2023-07-23T02:53:36.470Z,16.38
2023-07-23T02:56:04.586Z,16.38
2023-07-23T02:58:32.551Z,16.38
2023-07-23T03:01:00.545Z,16.42
2023-07-23T03:03:28.566Z,16.43
2023-07-23T03:05:57.982Z,16.39
2023-07-23T03:08:26.027Z,16.42
2023-07-23T03:10:54.044Z,16.43
2023-07-23T03:13:22.223Z,16.43
2023-07-23T03:15:50.225Z,16.43
2023-07-23T03:18:18.203Z,16.51
2023-07-23T03:24:54.501Z,16.49
2023-07-23T03:27:22.643Z,16.47
2023-07-23T03:29:50.578Z,16.50
2023-07-23T03:32:18.549Z,16.56
2023-07-23T03:34:46.540Z,16.57
2023-07-23T03:37:39.498Z,16.55
2023-07-23T03:40:10.132Z,16.58
2023-07-23T03:42:38.130Z,16.57
2023-07-23T03:45:07.244Z,16.57
2023-07-23T03:47:35.337Z,16.58
2023-07-23T03:50:03.390Z,16.57
2023-07-23T03:52:31.392Z,16.55
2023-07-23T03:54:59.436Z,16.66
2023-07-23T03:57:28.955Z,16.63
2023-07-23T03:59:56.953Z,16.62
2023-07-23T04:02:24.988Z,16.59
2023-07-23T04:04:53.020Z,16.60
2023-07-23T04:07:20.965Z,16.63
2023-07-23T04:09:49.016Z,16.66
2023-07-23T04:12:16.965Z,16.66
2023-07-23T04:14:46.334Z,16.71
2023-07-23T04:17:17.700Z,16.69
2023-07-23T04:19:46.143Z,16.71
2023-07-23T04:22:14.344Z,16.67
2023-07-23T04:24:42.455Z,16.71
2023-07-23T04:27:10.524Z,16.72
2023-07-23T04:29:38.561Z,16.74
2023-07-23T04:32:08.601Z,16.77
2023-07-23T04:34:37.095Z,16.78
2023-07-23T04:37:07.439Z,16.78
2023-07-23T04:39:35.795Z,16.75
2023-07-23T04:42:04.419Z,16.76
2023-07-23T04:44:32.468Z,16.72
2023-07-23T04:47:00.410Z,16.72
2023-07-23T04:49:29.779Z,16.76
2023-07-23T04:51:57.744Z,16.76
2023-07-23T04:54:25.760Z,16.75
2023-07-23T04:56:53.700Z,16.77
2023-07-23T04:59:21.629Z,16.76
2023-07-23T05:01:49.666Z,16.78
2023-07-23T05:04:17.632Z,16.74
2023-07-23T05:06:46.984Z,16.71
2023-07-23T05:09:14.985Z,16.70
2023-07-23T05:11:42.935Z,16.67
2023-07-23T05:14:11.076Z,16.69
2023-07-23T05:16:39.216Z,16.70
2023-07-23T05:19:07.236Z,16.70
2023-07-23T05:21:37.836Z,16.71
2023-07-23T05:24:07.361Z,16.75
2023-07-23T05:26:35.388Z,16.78
2023-07-23T05:29:03.622Z,16.75
2023-07-23T05:31:32.015Z,16.79
2023-07-23T05:34:00.396Z,16.83
2023-07-23T05:36:28.429Z,16.87
2023-07-23T05:38:56.431Z,16.90
2023-07-23T05:41:26.138Z,16.90
2023-07-23T05:43:54.184Z,16.96
2023-07-23T05:46:22.389Z,16.96
2023-07-23T05:48:50.903Z,17.00
2023-07-23T05:51:18.950Z,16.98
2023-07-23T05:53:47.125Z,17.01
2023-07-23T05:56:15.082Z,17.04
2023-07-23T05:58:44.407Z,17.11
2023-07-23T06:01:12.479Z,17.10
2023-07-23T06:03:53.221Z,17.11
2023-07-23T06:06:22.348Z,17.15
2023-07-23T06:08:50.361Z,17.17
2023-07-23T06:11:18.473Z,17.20
2023-07-23T06:13:47.828Z,17.16
2023-07-23T06:16:15.945Z,17.22
2023-07-23T06:18:44.025Z,17.27
2023-07-23T06:21:12.045Z,17.28
2023-07-23T06:23:40.047Z,17.33
2023-07-23T06:26:09.853Z,17.33
2023-07-23T06:28:39.888Z,17.36
2023-07-23T06:31:09.271Z,17.34
2023-07-23T06:33:37.468Z,17.31
2023-07-23T06:36:06.168Z,17.29
2023-07-23T06:38:34.265Z,17.33
2023-07-23T06:41:02.416Z,17.34
2023-07-23T06:43:30.597Z,17.37
2023-07-23T06:45:58.586Z,17.43
2023-07-23T06:48:29.944Z,17.46
2023-07-23T06:50:58.967Z,17.50
2023-07-23T06:53:27.037Z,17.57
2023-07-23T06:56:03.255Z,17.58
2023-07-23T06:58:33.060Z,17.61
2023-07-23T07:01:01.108Z,17.66
2023-07-23T07:03:30.637Z,17.66
2023-07-23T07:05:59.924Z,17.68
2023-07-23T07:08:28.754Z,17.66
2023-07-23T07:11:00.004Z,17.70
2023-07-23T07:13:28.535Z,17.78
2023-07-23T07:15:56.565Z,17.80
2023-07-23T07:18:27.316Z,17.83
2023-07-23T07:20:59.233Z,17.95
2023-07-23T07:23:27.652Z,17.96
2023-07-23T07:25:56.746Z,17.93
2023-07-23T07:28:25.619Z,17.98
2023-07-23T07:30:58.621Z,17.96
2023-07-23T07:33:26.863Z,17.86
2023-07-23T07:35:57.728Z,17.88
2023-07-23T07:38:26.396Z,17.85
2023-07-23T07:40:55.082Z,17.87
2023-07-23T07:43:23.155Z,17.87
2023-07-23T07:45:51.944Z,17.93
2023-07-23T07:48:21.881Z,17.97
2023-07-23T07:50:58.315Z,18.03
2023-07-23T07:53:27.751Z,17.99
2023-07-23T07:55:56.261Z,17.97
2023-07-23T07:58:26.673Z,18.01
2023-07-23T08:00:56.217Z,17.97
2023-07-23T08:03:26.075Z,18.12
2023-07-23T08:05:56.672Z,18.08
2023-07-23T08:08:28.805Z,18.10
2023-07-23T08:10:58.134Z,18.05
2023-07-23T08:13:27.071Z,18.07
2023-07-23T08:15:56.317Z,18.14
2023-07-23T08:18:26.060Z,18.21
2023-07-23T08:20:55.968Z,18.25
2023-07-23T08:23:25.706Z,18.31
2023-07-23T08:25:58.135Z,18.33
2023-07-23T08:28:31.146Z,18.36
2023-07-23T08:31:01.528Z,18.42
2023-07-23T08:33:32.150Z,18.47
2023-07-23T08:36:02.884Z,18.60
2023-07-23T08:38:31.982Z,18.60
2023-07-23T08:41:04.566Z,18.60
2023-07-23T08:44:11.725Z,18.65
2023-07-23T08:46:46.621Z,18.64
2023-07-23T08:49:18.053Z,18.61
2023-07-23T08:51:47.955Z,18.57
2023-07-23T08:54:20.346Z,18.61
2023-07-23T08:56:51.418Z,18.67
2023-07-23T08:59:21.068Z,18.79
2023-07-23T09:01:49.277Z,18.92
2023-07-23T09:04:17.225Z,18.92
2023-07-23T09:06:45.752Z,18.89
2023-07-23T09:09:15.548Z,18.87
2023-07-23T09:11:44.023Z,18.90
2023-07-23T09:14:15.546Z,19.02
2023-07-23T09:16:44.880Z,19.19
2023-07-23T09:19:14.285Z,19.35
2023-07-23T09:21:48.466Z,19.73
2023-07-23T09:24:18.176Z,19.90
2023-07-23T09:26:50.888Z,20.27
2023-07-23T09:29:20.668Z,20.37
2023-07-23T09:31:51.334Z,20.36
2023-07-23T09:34:20.988Z,20.40
2023-07-23T09:36:54.322Z,20.64
2023-07-23T09:39:26.565Z,20.85
2023-07-23T09:41:55.607Z,21.03
2023-07-23T09:44:26.421Z,21.20
2023-07-23T09:46:54.798Z,21.27
2023-07-23T09:49:25.724Z,21.50
2023-07-23T09:51:54.271Z,21.65
2023-07-23T09:54:22.877Z,21.97
2023-07-23T09:56:51.975Z,21.89
2023-07-23T09:59:20.869Z,21.68
2023-07-23T10:01:50.895Z,21.77
2023-07-23T10:04:20.546Z,22.04
2023-07-23T10:06:50.182Z,21.97
2023-07-23T10:09:18.584Z,21.94
2023-07-23T10:11:46.626Z,22.12
2023-07-23T10:14:40.432Z,22.23
2023-07-23T10:17:11.469Z,22.30
2023-07-23T10:19:42.291Z,22.23
2023-07-23T10:22:10.347Z,22.22
2023-07-23T10:24:40.225Z,22.22
2023-07-23T10:27:12.716Z,22.47
2023-07-23T10:29:40.781Z,22.43
2023-07-23T10:32:28.318Z,22.21
2023-07-23T10:34:56.624Z,22.21
2023-07-23T10:37:24.762Z,22.01
2023-07-23T10:39:54.237Z,21.96
2023-07-23T10:42:46.252Z,21.74
2023-07-23T10:45:23.384Z,21.74
2023-07-23T10:47:54.268Z,21.68
2023-07-23T10:50:23.624Z,21.87
2023-07-23T10:52:53.707Z,21.91
2023-07-23T10:55:37.323Z,21.88
2023-07-23T10:58:11.516Z,22.27
2023-07-23T11:00:44.072Z,22.39
2023-07-23T11:03:14.885Z,22.53
2023-07-23T11:05:43.536Z,22.73
2023-07-23T11:08:19.527Z,23.03
2023-07-23T11:10:59.076Z,23.09
2023-07-23T11:13:30.021Z,23.33
2023-07-23T11:15:58.127Z,23.08
2023-07-23T11:18:31.407Z,23.00
2023-07-23T11:21:04.158Z,23.06
2023-07-23T11:23:32.991Z,23.24
2023-07-23T11:26:01.149Z,23.27
2023-07-23T11:28:30.485Z,23.38
2023-07-23T11:30:58.783Z,23.61
2023-07-23T11:33:30.588Z,23.47
2023-07-23T11:35:58.907Z,23.67
2023-07-23T11:38:29.682Z,23.95
2023-07-23T11:40:58.550Z,24.00
2023-07-23T11:43:26.697Z,23.98
2023-07-23T11:45:54.810Z,24.06
2023-07-23T11:48:24.201Z,23.98
2023-07-23T11:50:54.535Z,24.51
2023-07-23T11:53:32.615Z,24.52
2023-07-23T11:56:08.493Z,24.60
2023-07-23T11:58:37.533Z,24.93
2023-07-23T12:01:06.381Z,25.30
2023-07-23T12:03:35.828Z,25.37
2023-07-23T12:06:06.225Z,25.34
2023-07-23T12:08:35.262Z,24.88
2023-07-23T12:11:09.500Z,24.77
2023-07-23T12:13:43.597Z,25.18
2023-07-23T12:16:16.868Z,24.99
2023-07-23T12:18:50.043Z,25.31
2023-07-23T12:21:22.876Z,25.57
2023-07-23T12:23:51.157Z,25.68
2023-07-23T12:26:19.316Z,25.20
2023-07-23T12:28:47.537Z,25.75
2023-07-23T12:31:15.593Z,26.04
2023-07-23T12:33:43.716Z,26.01
2023-07-23T12:36:11.842Z,25.71
2023-07-23T12:38:41.449Z,26.05
2023-07-23T12:41:09.527Z,25.98
2023-07-23T12:43:39.725Z,26.27
2023-07-23T12:46:07.948Z,26.41
2023-07-23T12:48:36.134Z,25.91
2023-07-23T12:51:04.358Z,25.65
2023-07-23T12:53:32.465Z,25.35
2023-07-23T12:56:01.976Z,25.18
2023-07-23T12:58:30.081Z,25.08
2023-07-23T13:00:58.189Z,25.82
2023-07-23T13:03:26.403Z,26.24
2023-07-23T13:05:54.387Z,26.18
2023-07-23T13:08:22.549Z,25.89
2023-07-23T13:10:50.777Z,25.74
2023-07-23T13:13:20.201Z,25.59
2023-07-23T13:15:48.372Z,26.02
2023-07-23T13:18:16.469Z,25.79
2023-07-23T13:20:44.720Z,25.98
2023-07-23T13:23:13.427Z,26.48
2023-07-23T13:25:41.657Z,25.98
2023-07-23T13:28:09.651Z,26.14
2023-07-23T13:30:39.472Z,25.90
2023-07-23T13:33:08.928Z,25.76
2023-07-23T13:35:38.920Z,25.56
2023-07-23T13:38:07.221Z,25.63
2023-07-23T13:40:35.626Z,26.03
2023-07-23T13:43:03.802Z,26.56
2023-07-23T13:45:31.927Z,27.01
2023-07-23T13:48:01.512Z,26.85
2023-07-23T13:50:45.472Z,26.91
2023-07-23T13:53:17.889Z,27.23
2023-07-23T13:55:46.135Z,27.49
2023-07-23T13:58:14.343Z,26.62
2023-07-23T14:00:42.605Z,26.17
2023-07-23T14:03:12.119Z,26.37
2023-07-23T14:05:40.262Z,27.35
2023-07-23T14:08:08.343Z,27.48
2023-07-23T14:10:40.030Z,26.90
2023-07-23T14:13:08.218Z,27.07
2023-07-23T14:15:36.220Z,27.33
2023-07-23T14:18:04.323Z,26.92
2023-07-23T14:20:33.754Z,27.75
2023-07-23T14:23:01.824Z,27.59
2023-07-23T14:25:29.957Z,27.29
2023-07-23T14:27:58.001Z,27.11
2023-07-23T14:30:26.019Z,27.16
2023-07-23T14:32:54.203Z,26.83
2023-07-23T14:35:22.319Z,26.48
2023-07-23T14:37:51.666Z,26.63
2023-07-23T14:40:19.846Z,26.97
2023-07-23T14:42:47.900Z,26.65
2023-07-23T14:45:17.256Z,26.76
2023-07-23T14:47:48.274Z,26.89
2023-07-23T14:50:16.688Z,26.65
2023-07-23T14:52:44.740Z,26.36
2023-07-23T14:55:14.716Z,26.34
2023-07-23T14:57:42.913Z,26.33
2023-07-23T15:00:12.203Z,26.28
2023-07-23T15:02:40.281Z,25.97
2023-07-23T15:05:09.042Z,25.95
2023-07-23T15:07:37.103Z,25.96
2023-07-23T15:10:05.790Z,25.79
2023-07-23T15:12:35.945Z,25.71
2023-07-23T15:15:05.151Z,25.69
2023-07-23T15:17:33.691Z,25.34
2023-07-23T15:20:02.355Z,25.19
2023-07-23T15:22:31.231Z,25.15
2023-07-23T15:25:00.496Z,25.11
2023-07-23T15:27:32.847Z,24.78
2023-07-23T15:30:02.304Z,24.67
2023-07-23T15:32:31.466Z,24.45
2023-07-23T15:34:59.623Z,24.43
2023-07-23T15:37:28.547Z,24.55
2023-07-23T15:39:56.652Z,24.29
2023-07-23T15:42:24.784Z,24.14
2023-07-23T15:44:52.767Z,24.13
2023-07-23T15:47:22.231Z,24.23
2023-07-23T15:49:50.345Z,24.26
2023-07-23T15:52:18.328Z,24.39
2023-07-23T15:54:46.318Z,24.34
2023-07-23T15:57:14.349Z,24.34
2023-07-23T15:59:42.398Z,24.38
2023-07-23T16:02:10.375Z,24.49
2023-07-23T16:04:40.216Z,24.54
2023-07-23T16:07:08.819Z,24.50
2023-07-23T16:09:36.808Z,24.45
2023-07-23T16:12:05.653Z,24.42
2023-07-23T16:14:33.728Z,24.41
2023-07-23T16:17:01.815Z,24.38
2023-07-23T16:19:29.799Z,24.47
2023-07-23T16:21:59.159Z,24.42
2023-07-23T16:24:27.243Z,24.33
2023-07-23T16:26:55.931Z,24.44
2023-07-23T16:29:24.055Z,24.22
2023-07-23T16:31:52.735Z,24.45
2023-07-23T16:34:21.322Z,24.74
2023-07-23T16:36:52.061Z,25.12
2023-07-23T16:39:22.550Z,24.77
2023-07-23T16:41:50.784Z,25.30
2023-07-23T16:44:19.760Z,25.25
2023-07-23T16:46:47.881Z,24.94
2023-07-23T16:49:15.898Z,25.11
2023-07-23T16:51:45.589Z,25.07
2023-07-23T16:54:13.611Z,25.13
2023-07-23T16:56:43.420Z,25.86
2023-07-23T16:59:11.568Z,26.12
2023-07-23T17:01:42.306Z,26.07
2023-07-23T17:04:10.428Z,26.12
2023-07-23T17:06:39.201Z,26.54
2023-07-23T17:09:07.549Z,26.50
2023-07-23T17:11:35.623Z,26.07
2023-07-23T17:14:05.118Z,26.17
2023-07-23T17:16:35.858Z,26.70
2023-07-23T17:19:04.498Z,26.51
2023-07-23T17:21:32.770Z,26.47
2023-07-23T17:24:00.901Z,26.35
2023-07-23T17:26:31.525Z,26.83
2023-07-23T17:28:59.859Z,26.40
2023-07-23T17:31:31.827Z,26.37
2023-07-23T17:33:59.923Z,26.29
2023-07-23T17:36:28.342Z,26.25
2023-07-23T17:38:56.614Z,26.02
2023-07-23T17:41:24.790Z,25.87
2023-07-23T17:43:52.897Z,25.35
2023-07-23T17:46:21.654Z,25.12
2023-07-23T17:48:51.256Z,24.92
2023-07-23T17:51:19.571Z,24.76
2023-07-23T17:53:47.771Z,24.49
2023-07-23T17:56:15.965Z,24.44
2023-07-23T17:58:44.114Z,24.28
2023-07-23T18:01:27.771Z,24.15
2023-07-23T18:04:02.028Z,24.14
2023-07-23T18:06:33.384Z,23.76
2023-07-23T18:09:01.896Z,23.61
2023-07-23T18:11:30.566Z,23.33
2023-07-23T18:13:58.661Z,23.20
2023-07-23T18:16:27.028Z,23.10
2023-07-23T18:18:55.274Z,22.86
2023-07-23T18:21:27.782Z,22.72
2023-07-23T18:24:23.629Z,22.54
2023-07-23T18:26:52.011Z,22.48
2023-07-23T18:29:20.214Z,22.42
2023-07-23T18:31:48.386Z,22.44
2023-07-23T18:34:16.527Z,22.26
2023-07-23T18:36:47.232Z,22.21
2023-07-23T18:39:15.440Z,22.15
2023-07-23T18:41:43.458Z,22.06
2023-07-23T18:44:11.830Z,22.04
2023-07-23T18:46:40.086Z,22.01
2023-07-23T18:49:08.230Z,21.88
2023-07-23T18:51:37.198Z,21.79
2023-07-23T18:54:07.270Z,21.81
2023-07-23T18:56:35.414Z,21.80
2023-07-23T18:59:03.550Z,21.78
2023-07-23T19:01:31.679Z,21.69
2023-07-23T19:03:59.887Z,21.67
2023-07-23T19:06:28.265Z,21.55
2023-07-23T19:08:56.718Z,21.50
2023-07-23T19:11:26.229Z,21.36
2023-07-23T19:13:54.335Z,21.31
2023-07-23T19:16:22.435Z,21.19
2023-07-23T19:18:50.637Z,21.16
2023-07-23T19:21:18.816Z,21.13
2023-07-23T19:23:46.970Z,21.01
2023-07-23T19:26:15.191Z,20.97
2023-07-23T19:28:44.685Z,20.86
2023-07-23T19:31:12.852Z,20.81
2023-07-23T19:33:41.067Z,20.78
2023-07-23T19:36:09.187Z,20.67
2023-07-23T19:38:37.679Z,20.64
2023-07-23T19:41:05.899Z,20.59
2023-07-23T19:43:33.971Z,20.49
2023-07-23T19:46:03.533Z,20.48
2023-07-23T19:48:31.725Z,20.35
2023-07-23T19:50:59.787Z,20.30
2023-07-23T19:53:27.999Z,20.25
2023-07-23T19:55:56.102Z,20.13
2023-07-23T19:58:24.936Z,20.01
2023-07-23T20:00:53.101Z,19.87
2023-07-23T20:03:22.776Z,19.84
2023-07-23T20:05:54.360Z,19.78
2023-07-23T20:08:22.458Z,19.66
2023-07-23T20:10:50.539Z,19.63
2023-07-23T20:13:18.514Z,19.56
2023-07-23T20:15:47.614Z,19.53
2023-07-23T20:18:15.688Z,19.38
2023-07-23T20:20:50.763Z,19.35
2023-07-23T20:23:18.874Z,19.30
2023-07-23T20:25:52.004Z,19.23
2023-07-23T20:28:20.673Z,19.20
2023-07-23T20:30:49.392Z,19.12
2023-07-23T20:33:17.927Z,19.10
2023-07-23T20:35:46.592Z,19.09
2023-07-23T20:38:16.529Z,18.96
2023-07-23T20:40:45.247Z,18.96
2023-07-23T20:43:13.837Z,18.95
2023-07-23T20:45:41.982Z,18.87
2023-07-23T20:48:10.049Z,18.83
2023-07-23T20:50:38.107Z,18.81
2023-07-23T20:53:06.202Z,18.79
2023-07-23T20:55:35.633Z,18.76
2023-07-23T20:58:03.650Z,18.74
2023-07-23T21:00:31.753Z,18.70
2023-07-23T21:02:59.937Z,18.68
2023-07-23T21:05:28.005Z,18.60
2023-07-23T21:07:56.178Z,18.60
2023-07-23T21:10:24.295Z,18.57
2023-07-23T21:12:53.671Z,18.53
2023-07-23T21:15:21.783Z,18.49
2023-07-23T21:17:49.862Z,18.41
2023-07-23T21:20:19.268Z,18.42
2023-07-23T21:22:47.627Z,18.39
2023-07-23T21:25:15.798Z,18.31
2023-07-23T21:27:43.879Z,18.28
2023-07-23T21:30:13.425Z,18.27
2023-07-23T21:32:41.477Z,18.28
2023-07-23T21:35:12.251Z,18.21
2023-07-23T21:37:40.082Z,18.14
2023-07-23T21:40:09.283Z,18.06
2023-07-23T21:42:37.323Z,18.08
2023-07-23T21:45:06.026Z,18.00
2023-07-23T21:47:35.620Z,17.94
2023-07-23T21:50:03.626Z,17.94
2023-07-23T21:52:31.590Z,17.90
2023-07-23T21:54:59.547Z,17.90
2023-07-23T21:57:27.609Z,17.88
2023-07-23T21:59:55.623Z,17.83
2023-07-23T22:02:23.669Z,17.80
2023-07-23T22:04:53.151Z,17.78
2023-07-23T22:08:48.556Z,17.78
2023-07-23T22:11:16.999Z,17.70
2023-07-23T22:13:44.981Z,17.63
2023-07-23T22:16:13.248Z,17.66
2023-07-23T22:18:41.299Z,17.61
2023-07-23T22:21:10.817Z,17.60
2023-07-23T22:23:38.977Z,17.55
2023-07-23T22:26:07.159Z,17.47
2023-07-23T22:28:35.279Z,17.47
2023-07-23T22:31:03.360Z,17.47
2023-07-23T22:34:00.230Z,17.39
2023-07-23T22:36:30.485Z,17.31
2023-07-23T22:38:58.762Z,17.30
2023-07-23T22:41:26.762Z,17.28
2023-07-23T22:43:57.112Z,17.24
2023-07-23T22:46:26.426Z,17.23
2023-07-23T22:48:55.082Z,17.17
2023-07-23T22:51:23.225Z,17.15
2023-07-23T22:53:54.058Z,17.14
2023-07-23T22:56:22.222Z,17.15
2023-07-23T22:58:51.401Z,17.11
2023-07-23T23:01:21.031Z,17.11
2023-07-23T23:03:49.077Z,17.10
2023-07-23T23:06:17.105Z,17.08
2023-07-23T23:08:45.182Z,17.06
2023-07-23T23:11:14.551Z,17.06
2023-07-23T23:13:42.725Z,17.06
2023-07-23T23:16:10.886Z,17.01
2023-07-23T23:18:38.929Z,16.98
2023-07-23T23:21:06.970Z,16.95
2023-07-23T23:23:34.981Z,16.94
2023-07-23T23:26:03.032Z,16.93
2023-07-23T23:28:32.466Z,16.92
2023-07-23T23:31:00.547Z,16.91
2023-07-23T23:33:28.746Z,16.93
2023-07-23T23:35:57.276Z,16.93
2023-07-23T23:38:26.812Z,16.89
2023-07-23T23:40:55.711Z,16.84
2023-07-23T23:43:24.199Z,16.85
2023-07-23T23:45:53.681Z,16.82
2023-07-23T23:48:21.833Z,16.82
2023-07-23T23:50:50.021Z,16.81
2023-07-23T23:53:18.228Z,16.79
2023-07-23T23:55:46.349Z,16.76
2023-07-23T23:58:14.544Z,16.74
